sensor_id;sensor_type;location;lat;lon;timestamp;P1;durP1;ratioP1;P2;durP2;ratioP2
44204;SDS011;30163;42.698;23.344;2023-07-31T00:00:33;6.15;;;4.60;;
44204;SDS011;30163;42.698;23.344;2023-07-31T00:02:59;5.82;;;4.43;;
44204;SDS011;30163;42.698;23.344;2023-07-31T00:05:27;6.65;;;3.83;;
44204;SDS011;30163;42.698;23.344;2023-07-31T00:07:55;5.75;;;4.20;;
44204;SDS011;30163;42.698;23.344;2023-07-31T00:10:30;8.98;;;4.10;;
44204;SDS011;30163;42.698;23.344;2023-07-31T00:12:56;5.72;;;4.07;;
44204;SDS011;30163;42.698;23.344;2023-07-31T00:15:26;6.40;;;3.85;;
44204;SDS011;30163;42.698;23.344;2023-07-31T00:17:54;6.32;;;4.30;;
44204;SDS011;30163;42.698;23.344;2023-07-31T00:20:20;8.75;;;4.50;;
44204;SDS011;30163;42.698;23.344;2023-07-31T00:22:46;6.78;;;4.85;;
44204;SDS011;30163;42.698;23.344;2023-07-31T00:25:13;6.13;;;4.57;;
44204;SDS011;30163;42.698;23.344;2023-07-31T00:27:39;8.18;;;5.07;;
44204;SDS011;30163;42.698;23.344;2023-07-31T00:30:09;7.00;;;4.63;;
44204;SDS011;30163;42.698;23.344;2023-07-31T00:32:35;6.30;;;4.60;;
44204;SDS011;30163;42.698;23.344;2023-07-31T00:35:01;11.40;;;4.60;;
44204;SDS011;30163;42.698;23.344;2023-07-31T00:37:26;7.63;;;4.85;;
44204;SDS011;30163;42.698;23.344;2023-07-31T00:39:52;7.72;;;5.00;;
44204;SDS011;30163;42.698;23.344;2023-07-31T00:42:17;7.10;;;4.88;;
44204;SDS011;30163;42.698;23.344;2023-07-31T00:44:43;9.02;;;5.93;;
44204;SDS011;30163;42.698;23.344;2023-07-31T00:47:08;7.28;;;5.25;;
44204;SDS011;30163;42.698;23.344;2023-07-31T00:49:34;8.65;;;5.82;;
44204;SDS011;30163;42.698;23.344;2023-07-31T00:51:59;11.20;;;5.78;;
44204;SDS011;30163;42.698;23.344;2023-07-31T00:54:25;8.27;;;6.22;;
44204;SDS011;30163;42.698;23.344;2023-07-31T00:56:50;10.10;;;6.35;;
44204;SDS011;30163;42.698;23.344;2023-07-31T00:59:18;10.00;;;6.70;;
44204;SDS011;30163;42.698;23.344;2023-07-31T01:01:43;10.13;;;6.97;;
44204;SDS011;30163;42.698;23.344;2023-07-31T01:04:09;11.32;;;7.53;;
44204;SDS011;30163;42.698;23.344;2023-07-31T01:11:58;18.02;;;12.02;;
44204;SDS011;30163;42.698;23.344;2023-07-31T01:14:26;19.77;;;11.18;;
44204;SDS011;30163;42.698;23.344;2023-07-31T01:16:52;16.48;;;12.88;;
44204;SDS011;30163;42.698;23.344;2023-07-31T01:19:17;16.98;;;13.45;;
44204;SDS011;30163;42.698;23.344;2023-07-31T01:27:30;20.08;;;16.08;;
44204;SDS011;30163;42.698;23.344;2023-07-31T01:29:59;23.38;;;17.33;;
44204;SDS011;30163;42.698;23.344;2023-07-31T01:32:29;25.38;;;17.65;;
44204;SDS011;30163;42.698;23.344;2023-07-31T01:34:54;25.38;;;18.45;;
44204;SDS011;30163;42.698;23.344;2023-07-31T01:37:21;26.38;;;19.30;;
44204;SDS011;30163;42.698;23.344;2023-07-31T01:39:46;25.52;;;18.88;;
44204;SDS011;30163;42.698;23.344;2023-07-31T01:42:11;27.10;;;19.95;;
44204;SDS011;30163;42.698;23.344;2023-07-31T01:44:37;31.30;;;20.60;;
44204;SDS011;30163;42.698;23.344;2023-07-31T01:47:02;27.00;;;20.33;;
44204;SDS011;30163;42.698;23.344;2023-07-31T01:49:28;31.77;;;21.27;;
44204;SDS011;30163;42.698;23.344;2023-07-31T01:51:53;30.92;;;22.35;;
44204;SDS011;30163;42.698;23.344;2023-07-31T01:54:19;35.67;;;23.42;;
44204;SDS011;30163;42.698;23.344;2023-07-31T01:56:44;35.08;;;22.13;;
44204;SDS011;30163;42.698;23.344;2023-07-31T01:59:09;34.58;;;23.23;;
44204;SDS011;30163;42.698;23.344;2023-07-31T02:01:35;37.25;;;25.40;;
44204;SDS011;30163;42.698;23.344;2023-07-31T02:04:00;31.55;;;24.45;;
44204;SDS011;30163;42.698;23.344;2023-07-31T02:06:26;40.58;;;26.65;;
44204;SDS011;30163;42.698;23.344;2023-07-31T02:08:52;36.83;;;26.25;;
44204;SDS011;30163;42.698;23.344;2023-07-31T02:11:17;50.22;;;28.40;;
44204;SDS011;30163;42.698;23.344;2023-07-31T02:13:42;38.97;;;27.42;;
44204;SDS011;30163;42.698;23.344;2023-07-31T02:16:08;39.30;;;27.55;;
44204;SDS011;30163;42.698;23.344;2023-07-31T02:18:33;38.22;;;27.10;;
44204;SDS011;30163;42.698;23.344;2023-07-31T02:20:59;43.92;;;28.70;;
44204;SDS011;30163;42.698;23.344;2023-07-31T02:23:24;40.83;;;29.45;;
44204;SDS011;30163;42.698;23.344;2023-07-31T02:25:50;46.13;;;30.58;;
44204;SDS011;30163;42.698;23.344;2023-07-31T02:28:15;41.08;;;28.05;;
44204;SDS011;30163;42.698;23.344;2023-07-31T02:30:43;41.97;;;31.08;;
44204;SDS011;30163;42.698;23.344;2023-07-31T02:33:09;45.72;;;30.40;;
44204;SDS011;30163;42.698;23.344;2023-07-31T02:35:35;42.28;;;29.73;;
44204;SDS011;30163;42.698;23.344;2023-07-31T02:38:00;42.67;;;30.55;;
44204;SDS011;30163;42.698;23.344;2023-07-31T02:40:25;44.17;;;29.75;;
44204;SDS011;30163;42.698;23.344;2023-07-31T02:42:51;43.25;;;30.85;;
44204;SDS011;30163;42.698;23.344;2023-07-31T02:45:16;43.20;;;29.63;;
44204;SDS011;30163;42.698;23.344;2023-07-31T02:47:42;41.17;;;30.05;;
44204;SDS011;30163;42.698;23.344;2023-07-31T02:50:07;46.30;;;30.00;;
44204;SDS011;30163;42.698;23.344;2023-07-31T02:52:33;44.92;;;28.90;;
44204;SDS011;30163;42.698;23.344;2023-07-31T02:54:58;39.92;;;30.02;;
44204;SDS011;30163;42.698;23.344;2023-07-31T02:57:24;43.20;;;30.27;;
44204;SDS011;30163;42.698;23.344;2023-07-31T02:59:50;36.95;;;26.75;;
44204;SDS011;30163;42.698;23.344;2023-07-31T03:02:15;42.65;;;29.98;;
44204;SDS011;30163;42.698;23.344;2023-07-31T03:04:40;39.92;;;28.35;;
44204;SDS011;30163;42.698;23.344;2023-07-31T03:07:06;38.55;;;28.33;;
44204;SDS011;30163;42.698;23.344;2023-07-31T03:09:31;41.05;;;27.70;;
44204;SDS011;30163;42.698;23.344;2023-07-31T03:11:57;41.13;;;29.20;;
44204;SDS011;30163;42.698;23.344;2023-07-31T03:14:22;40.17;;;29.00;;
44204;SDS011;30163;42.698;23.344;2023-07-31T03:16:48;40.03;;;29.98;;
44204;SDS011;30163;42.698;23.344;2023-07-31T03:19:14;39.42;;;29.70;;
44204;SDS011;30163;42.698;23.344;2023-07-31T03:21:39;42.05;;;29.52;;
44204;SDS011;30163;42.698;23.344;2023-07-31T03:24:04;47.00;;;31.85;;
44204;SDS011;30163;42.698;23.344;2023-07-31T03:26:31;45.90;;;29.98;;
44204;SDS011;30163;42.698;23.344;2023-07-31T03:28:57;43.53;;;29.40;;
44204;SDS011;30163;42.698;23.344;2023-07-31T03:31:22;44.65;;;30.73;;
44204;SDS011;30163;42.698;23.344;2023-07-31T03:33:47;47.10;;;29.25;;
44204;SDS011;30163;42.698;23.344;2023-07-31T03:36:13;37.75;;;29.10;;
44204;SDS011;30163;42.698;23.344;2023-07-31T03:38:38;47.35;;;31.52;;
44204;SDS011;30163;42.698;23.344;2023-07-31T03:41:04;44.35;;;30.65;;
44204;SDS011;30163;42.698;23.344;2023-07-31T03:43:31;48.90;;;30.65;;
44204;SDS011;30163;42.698;23.344;2023-07-31T03:45:58;35.85;;;26.92;;
44204;SDS011;30163;42.698;23.344;2023-07-31T03:48:23;45.22;;;30.02;;
44204;SDS011;30163;42.698;23.344;2023-07-31T03:50:48;47.58;;;27.83;;
44204;SDS011;30163;42.698;23.344;2023-07-31T03:53:14;39.40;;;28.27;;
44204;SDS011;30163;42.698;23.344;2023-07-31T03:55:39;40.05;;;26.92;;
44204;SDS011;30163;42.698;23.344;2023-07-31T03:58:05;41.25;;;29.13;;
44204;SDS011;30163;42.698;23.344;2023-07-31T04:00:30;38.30;;;28.92;;
44204;SDS011;30163;42.698;23.344;2023-07-31T04:02:56;44.53;;;28.80;;
44204;SDS011;30163;42.698;23.344;2023-07-31T04:05:21;46.45;;;29.42;;
44204;SDS011;30163;42.698;23.344;2023-07-31T04:07:46;42.60;;;29.10;;
44204;SDS011;30163;42.698;23.344;2023-07-31T04:10:12;46.95;;;31.55;;
44204;SDS011;30163;42.698;23.344;2023-07-31T04:12:37;47.45;;;29.92;;
44204;SDS011;30163;42.698;23.344;2023-07-31T04:15:03;50.78;;;31.65;;
44204;SDS011;30163;42.698;23.344;2023-07-31T04:17:29;50.13;;;32.15;;
44204;SDS011;30163;42.698;23.344;2023-07-31T04:19:54;50.42;;;32.25;;
44204;SDS011;30163;42.698;23.344;2023-07-31T04:22:19;46.88;;;31.27;;
44204;SDS011;30163;42.698;23.344;2023-07-31T04:24:45;56.15;;;31.38;;
44204;SDS011;30163;42.698;23.344;2023-07-31T04:27:10;44.13;;;31.40;;
44204;SDS011;30163;42.698;23.344;2023-07-31T04:29:36;44.85;;;30.85;;
44204;SDS011;30163;42.698;23.344;2023-07-31T04:32:01;45.35;;;32.20;;
44204;SDS011;30163;42.698;23.344;2023-07-31T04:34:27;47.38;;;30.38;;
44204;SDS011;30163;42.698;23.344;2023-07-31T04:36:52;41.88;;;30.42;;
44204;SDS011;30163;42.698;23.344;2023-07-31T04:39:17;42.20;;;29.98;;
44204;SDS011;30163;42.698;23.344;2023-07-31T04:41:43;37.33;;;27.73;;
44204;SDS011;30163;42.698;23.344;2023-07-31T04:44:08;40.25;;;28.73;;
44204;SDS011;30163;42.698;23.344;2023-07-31T04:46:36;43.85;;;28.20;;
44204;SDS011;30163;42.698;23.344;2023-07-31T04:49:02;43.25;;;28.92;;
44204;SDS011;30163;42.698;23.344;2023-07-31T04:51:28;42.13;;;27.80;;
44204;SDS011;30163;42.698;23.344;2023-07-31T04:53:53;44.92;;;29.50;;
44204;SDS011;30163;42.698;23.344;2023-07-31T04:56:18;44.05;;;28.33;;
44204;SDS011;30163;42.698;23.344;2023-07-31T04:58:44;37.67;;;27.58;;
44204;SDS011;30163;42.698;23.344;2023-07-31T05:01:09;38.33;;;27.15;;
44204;SDS011;30163;42.698;23.344;2023-07-31T05:03:34;43.17;;;27.63;;
44204;SDS011;30163;42.698;23.344;2023-07-31T05:06:00;43.80;;;27.00;;
44204;SDS011;30163;42.698;23.344;2023-07-31T05:08:26;39.92;;;25.15;;
44204;SDS011;30163;42.698;23.344;2023-07-31T05:10:51;34.70;;;25.77;;
44204;SDS011;30163;42.698;23.344;2023-07-31T05:13:17;38.83;;;26.67;;
44204;SDS011;30163;42.698;23.344;2023-07-31T05:15:42;33.95;;;24.15;;
44204;SDS011;30163;42.698;23.344;2023-07-31T05:18:07;39.90;;;22.95;;
44204;SDS011;30163;42.698;23.344;2023-07-31T05:20:33;33.80;;;23.35;;
44204;SDS011;30163;42.698;23.344;2023-07-31T05:22:58;29.95;;;22.48;;
44204;SDS011;30163;42.698;23.344;2023-07-31T05:25:24;32.47;;;23.17;;
44204;SDS011;30163;42.698;23.344;2023-07-31T05:27:49;27.85;;;21.40;;
44204;SDS011;30163;42.698;23.344;2023-07-31T05:30:14;28.33;;;20.75;;
44204;SDS011;30163;42.698;23.344;2023-07-31T05:32:40;25.13;;;19.63;;
44204;SDS011;30163;42.698;23.344;2023-07-31T05:35:05;32.63;;;20.13;;
44204;SDS011;30163;42.698;23.344;2023-07-31T05:37:31;26.80;;;20.30;;
44204;SDS011;30163;42.698;23.344;2023-07-31T05:39:56;29.83;;;19.38;;
44204;SDS011;30163;42.698;23.344;2023-07-31T05:42:22;25.45;;;17.05;;
44204;SDS011;30163;42.698;23.344;2023-07-31T05:44:47;22.05;;;16.52;;
44204;SDS011;30163;42.698;23.344;2023-07-31T05:47:13;19.10;;;15.98;;
44204;SDS011;30163;42.698;23.344;2023-07-31T05:49:38;25.42;;;17.10;;
44204;SDS011;30163;42.698;23.344;2023-07-31T05:52:04;21.88;;;15.15;;
44204;SDS011;30163;42.698;23.344;2023-07-31T05:54:29;20.98;;;15.18;;
44204;SDS011;30163;42.698;23.344;2023-07-31T05:56:55;18.63;;;14.38;;
44204;SDS011;30163;42.698;23.344;2023-07-31T05:59:20;15.90;;;12.70;;
44204;SDS011;30163;42.698;23.344;2023-07-31T06:01:45;18.20;;;12.75;;
44204;SDS011;30163;42.698;23.344;2023-07-31T06:04:11;16.92;;;12.60;;
44204;SDS011;30163;42.698;23.344;2023-07-31T06:06:36;20.77;;;12.38;;
44204;SDS011;30163;42.698;23.344;2023-07-31T06:09:02;18.50;;;11.50;;
44204;SDS011;30163;42.698;23.344;2023-07-31T06:11:28;20.08;;;12.15;;
44204;SDS011;30163;42.698;23.344;2023-07-31T06:13:54;17.35;;;11.02;;
44204;SDS011;30163;42.698;23.344;2023-07-31T06:16:19;14.43;;;10.50;;
44204;SDS011;30163;42.698;23.344;2023-07-31T06:18:46;26.63;;;10.95;;
44204;SDS011;30163;42.698;23.344;2023-07-31T06:21:12;12.77;;;8.52;;
44204;SDS011;30163;42.698;23.344;2023-07-31T06:23:37;10.23;;;8.05;;
44204;SDS011;30163;42.698;23.344;2023-07-31T06:26:02;12.75;;;8.32;;
44204;SDS011;30163;42.698;23.344;2023-07-31T06:28:28;15.52;;;7.35;;
44204;SDS011;30163;42.698;23.344;2023-07-31T06:30:54;9.30;;;7.57;;
44204;SDS011;30163;42.698;23.344;2023-07-31T06:33:20;9.95;;;7.38;;
44204;SDS011;30163;42.698;23.344;2023-07-31T06:35:45;12.23;;;6.75;;
44204;SDS011;30163;42.698;23.344;2023-07-31T06:38:10;12.07;;;6.95;;
44204;SDS011;30163;42.698;23.344;2023-07-31T06:40:36;26.75;;;8.15;;
44204;SDS011;30163;42.698;23.344;2023-07-31T06:43:01;9.90;;;7.10;;
44204;SDS011;30163;42.698;23.344;2023-07-31T06:45:33;11.95;;;7.50;;
44204;SDS011;30163;42.698;23.344;2023-07-31T06:47:59;21.65;;;7.30;;
44204;SDS011;30163;42.698;23.344;2023-07-31T06:50:26;11.60;;;7.20;;
44204;SDS011;30163;42.698;23.344;2023-07-31T06:52:52;9.23;;;6.43;;
44204;SDS011;30163;42.698;23.344;2023-07-31T06:55:18;9.32;;;6.38;;
44204;SDS011;30163;42.698;23.344;2023-07-31T06:57:45;7.43;;;5.50;;
44204;SDS011;30163;42.698;23.344;2023-07-31T07:00:11;13.35;;;5.88;;
44204;SDS011;30163;42.698;23.344;2023-07-31T07:02:37;11.30;;;6.03;;
44204;SDS011;30163;42.698;23.344;2023-07-31T07:05:03;10.00;;;6.00;;
44204;SDS011;30163;42.698;23.344;2023-07-31T07:07:29;6.95;;;5.10;;
44204;SDS011;30163;42.698;23.344;2023-07-31T07:09:54;12.00;;;6.38;;
44204;SDS011;30163;42.698;23.344;2023-07-31T07:12:19;8.98;;;5.80;;
44204;SDS011;30163;42.698;23.344;2023-07-31T07:14:45;9.38;;;6.00;;
44204;SDS011;30163;42.698;23.344;2023-07-31T07:17:13;13.20;;;5.78;;
44204;SDS011;30163;42.698;23.344;2023-07-31T07:19:41;11.60;;;6.25;;
44204;SDS011;30163;42.698;23.344;2023-07-31T07:22:07;12.23;;;5.47;;
44204;SDS011;30163;42.698;23.344;2023-07-31T07:24:33;10.73;;;6.30;;
44204;SDS011;30163;42.698;23.344;2023-07-31T07:26:58;10.20;;;5.05;;
44204;SDS011;30163;42.698;23.344;2023-07-31T07:29:23;9.30;;;5.35;;
44204;SDS011;30163;42.698;23.344;2023-07-31T07:31:49;8.15;;;6.10;;
44204;SDS011;30163;42.698;23.344;2023-07-31T07:34:14;6.88;;;5.13;;
44204;SDS011;30163;42.698;23.344;2023-07-31T07:36:40;8.45;;;4.70;;
44204;SDS011;30163;42.698;23.344;2023-07-31T07:39:05;10.95;;;5.13;;
44204;SDS011;30163;42.698;23.344;2023-07-31T07:41:30;9.80;;;5.13;;
44204;SDS011;30163;42.698;23.344;2023-07-31T07:43:56;7.50;;;5.57;;
44204;SDS011;30163;42.698;23.344;2023-07-31T07:46:22;9.27;;;5.07;;
44204;SDS011;30163;42.698;23.344;2023-07-31T07:48:48;10.25;;;5.18;;
44204;SDS011;30163;42.698;23.344;2023-07-31T07:51:13;9.05;;;4.43;;
44204;SDS011;30163;42.698;23.344;2023-07-31T07:53:39;8.55;;;5.18;;
44204;SDS011;30163;42.698;23.344;2023-07-31T07:56:04;9.68;;;4.05;;
44204;SDS011;30163;42.698;23.344;2023-07-31T07:58:29;4.20;;;3.45;;
44204;SDS011;30163;42.698;23.344;2023-07-31T08:00:55;5.95;;;4.07;;
44204;SDS011;30163;42.698;23.344;2023-07-31T08:03:20;11.18;;;4.90;;
44204;SDS011;30163;42.698;23.344;2023-07-31T08:05:46;7.18;;;4.45;;
44204;SDS011;30163;42.698;23.344;2023-07-31T08:08:14;12.05;;;4.93;;
44204;SDS011;30163;42.698;23.344;2023-07-31T08:10:44;12.50;;;4.60;;
44204;SDS011;30163;42.698;23.344;2023-07-31T08:13:10;11.77;;;5.15;;
44204;SDS011;30163;42.698;23.344;2023-07-31T08:15:36;7.32;;;4.43;;
44204;SDS011;30163;42.698;23.344;2023-07-31T08:18:02;7.75;;;4.85;;
44204;SDS011;30163;42.698;23.344;2023-07-31T08:20:27;5.70;;;4.43;;
44204;SDS011;30163;42.698;23.344;2023-07-31T08:22:53;8.85;;;5.47;;
44204;SDS011;30163;42.698;23.344;2023-07-31T08:25:18;8.70;;;4.45;;
44204;SDS011;30163;42.698;23.344;2023-07-31T08:27:44;14.13;;;5.53;;
44204;SDS011;30163;42.698;23.344;2023-07-31T08:30:10;10.27;;;5.32;;
44204;SDS011;30163;42.698;23.344;2023-07-31T08:32:36;10.02;;;4.40;;
44204;SDS011;30163;42.698;23.344;2023-07-31T08:35:01;13.23;;;5.40;;
44204;SDS011;30163;42.698;23.344;2023-07-31T08:37:27;10.30;;;6.50;;
44204;SDS011;30163;42.698;23.344;2023-07-31T08:39:53;8.90;;;4.97;;
44204;SDS011;30163;42.698;23.344;2023-07-31T08:42:19;9.07;;;5.05;;
44204;SDS011;30163;42.698;23.344;2023-07-31T08:44:45;10.82;;;4.95;;
44204;SDS011;30163;42.698;23.344;2023-07-31T08:47:11;12.30;;;4.75;;
44204;SDS011;30163;42.698;23.344;2023-07-31T08:49:37;16.77;;;5.80;;
44204;SDS011;30163;42.698;23.344;2023-07-31T08:52:03;7.55;;;4.20;;
44204;SDS011;30163;42.698;23.344;2023-07-31T08:54:29;9.48;;;4.10;;
44204;SDS011;30163;42.698;23.344;2023-07-31T08:56:56;9.65;;;4.95;;
44204;SDS011;30163;42.698;23.344;2023-07-31T08:59:22;15.80;;;4.68;;
44204;SDS011;30163;42.698;23.344;2023-07-31T09:01:49;8.98;;;4.50;;
44204;SDS011;30163;42.698;23.344;2023-07-31T09:04:16;8.70;;;4.80;;
44204;SDS011;30163;42.698;23.344;2023-07-31T09:06:42;11.63;;;4.95;;
44204;SDS011;30163;42.698;23.344;2023-07-31T09:09:08;7.22;;;3.58;;
44204;SDS011;30163;42.698;23.344;2023-07-31T09:11:34;6.47;;;4.07;;
44204;SDS011;30163;42.698;23.344;2023-07-31T09:13:59;11.75;;;3.80;;
44204;SDS011;30163;42.698;23.344;2023-07-31T09:16:30;12.82;;;4.18;;
44204;SDS011;30163;42.698;23.344;2023-07-31T09:18:58;7.72;;;3.85;;
44204;SDS011;30163;42.698;23.344;2023-07-31T09:21:26;13.70;;;7.03;;
44204;SDS011;30163;42.698;23.344;2023-07-31T09:23:53;6.90;;;3.90;;
44204;SDS011;30163;42.698;23.344;2023-07-31T09:26:34;4.55;;;3.60;;
44204;SDS011;30163;42.698;23.344;2023-07-31T09:29:01;7.47;;;4.32;;
44204;SDS011;30163;42.698;23.344;2023-07-31T09:31:39;9.65;;;5.35;;
44204;SDS011;30163;42.698;23.344;2023-07-31T09:34:06;5.10;;;3.70;;
44204;SDS011;30163;42.698;23.344;2023-07-31T09:36:32;13.93;;;7.03;;
44204;SDS011;30163;42.698;23.344;2023-07-31T09:39:03;9.93;;;4.10;;
44204;SDS011;30163;42.698;23.344;2023-07-31T09:41:30;13.10;;;4.00;;
44204;SDS011;30163;42.698;23.344;2023-07-31T09:43:55;4.70;;;3.60;;
44204;SDS011;30163;42.698;23.344;2023-07-31T09:46:21;5.55;;;3.92;;
44204;SDS011;30163;42.698;23.344;2023-07-31T09:48:47;6.68;;;3.92;;
44204;SDS011;30163;42.698;23.344;2023-07-31T09:51:12;6.97;;;4.35;;
44204;SDS011;30163;42.698;23.344;2023-07-31T09:53:38;7.88;;;4.00;;
44204;SDS011;30163;42.698;23.344;2023-07-31T09:56:03;4.10;;;3.00;;
44204;SDS011;30163;42.698;23.344;2023-07-31T09:58:29;6.75;;;3.47;;
44204;SDS011;30163;42.698;23.344;2023-07-31T10:00:55;5.65;;;2.88;;
44204;SDS011;30163;42.698;23.344;2023-07-31T10:03:23;4.75;;;3.20;;
44204;SDS011;30163;42.698;23.344;2023-07-31T10:05:52;5.75;;;2.92;;
44204;SDS011;30163;42.698;23.344;2023-07-31T10:08:19;8.75;;;3.25;;
44204;SDS011;30163;42.698;23.344;2023-07-31T10:10:46;5.30;;;3.15;;
44204;SDS011;30163;42.698;23.344;2023-07-31T10:13:12;6.35;;;2.85;;
44204;SDS011;30163;42.698;23.344;2023-07-31T10:15:39;5.07;;;3.55;;
44204;SDS011;30163;42.698;23.344;2023-07-31T10:18:06;4.53;;;2.80;;
44204;SDS011;30163;42.698;23.344;2023-07-31T10:20:32;8.23;;;3.42;;
44204;SDS011;30163;42.698;23.344;2023-07-31T10:22:57;7.65;;;2.60;;
44204;SDS011;30163;42.698;23.344;2023-07-31T10:25:24;7.07;;;3.45;;
44204;SDS011;30163;42.698;23.344;2023-07-31T10:27:51;7.78;;;3.10;;
44204;SDS011;30163;42.698;23.344;2023-07-31T10:30:18;11.63;;;2.95;;
44204;SDS011;30163;42.698;23.344;2023-07-31T10:32:45;3.72;;;2.65;;
44204;SDS011;30163;42.698;23.344;2023-07-31T10:35:11;9.35;;;2.97;;
44204;SDS011;30163;42.698;23.344;2023-07-31T10:37:38;6.72;;;2.75;;
44204;SDS011;30163;42.698;23.344;2023-07-31T10:40:05;4.45;;;2.53;;
44204;SDS011;30163;42.698;23.344;2023-07-31T10:42:33;7.63;;;2.53;;
44204;SDS011;30163;42.698;23.344;2023-07-31T10:45:01;10.40;;;2.30;;
44204;SDS011;30163;42.698;23.344;2023-07-31T10:47:36;3.30;;;2.65;;
44204;SDS011;30163;42.698;23.344;2023-07-31T10:52:46;7.15;;;2.78;;
44204;SDS011;30163;42.698;23.344;2023-07-31T10:55:24;6.38;;;2.70;;
44204;SDS011;30163;42.698;23.344;2023-07-31T10:57:50;10.55;;;3.72;;
44204;SDS011;30163;42.698;23.344;2023-07-31T11:02:58;5.93;;;2.80;;
44204;SDS011;30163;42.698;23.344;2023-07-31T11:08:11;3.22;;;2.50;;
44204;SDS011;30163;42.698;23.344;2023-07-31T11:10:37;5.57;;;2.78;;
44204;SDS011;30163;42.698;23.344;2023-07-31T11:13:04;7.07;;;2.83;;
44204;SDS011;30163;42.698;23.344;2023-07-31T11:15:29;5.25;;;2.58;;
44204;SDS011;30163;42.698;23.344;2023-07-31T11:17:55;4.07;;;2.80;;
44204;SDS011;30163;42.698;23.344;2023-07-31T11:20:23;8.93;;;2.28;;
44204;SDS011;30163;42.698;23.344;2023-07-31T11:22:49;2.83;;;2.22;;
44204;SDS011;30163;42.698;23.344;2023-07-31T11:25:14;6.15;;;2.47;;
44204;SDS011;30163;42.698;23.344;2023-07-31T11:27:41;11.25;;;2.75;;
44204;SDS011;30163;42.698;23.344;2023-07-31T11:30:08;9.52;;;2.63;;
44204;SDS011;30163;42.698;23.344;2023-07-31T11:32:36;5.45;;;2.20;;
44204;SDS011;30163;42.698;23.344;2023-07-31T11:35:02;7.60;;;2.65;;
44204;SDS011;30163;42.698;23.344;2023-07-31T11:37:39;4.20;;;2.50;;
44204;SDS011;30163;42.698;23.344;2023-07-31T11:40:05;7.10;;;2.53;;
44204;SDS011;30163;42.698;23.344;2023-07-31T11:42:31;6.32;;;3.28;;
44204;SDS011;30163;42.698;23.344;2023-07-31T11:44:57;12.70;;;3.55;;
44204;SDS011;30163;42.698;23.344;2023-07-31T11:47:22;9.07;;;3.10;;
44204;SDS011;30163;42.698;23.344;2023-07-31T11:49:47;4.93;;;3.30;;
44204;SDS011;30163;42.698;23.344;2023-07-31T11:52:14;5.85;;;3.22;;
44204;SDS011;30163;42.698;23.344;2023-07-31T11:54:40;9.10;;;3.58;;
44204;SDS011;30163;42.698;23.344;2023-07-31T11:57:05;5.03;;;3.65;;
44204;SDS011;30163;42.698;23.344;2023-07-31T11:59:31;18.90;;;4.28;;
44204;SDS011;30163;42.698;23.344;2023-07-31T12:01:56;5.03;;;3.42;;
44204;SDS011;30163;42.698;23.344;2023-07-31T12:04:23;4.15;;;3.30;;
44204;SDS011;30163;42.698;23.344;2023-07-31T12:06:49;10.73;;;3.67;;
44204;SDS011;30163;42.698;23.344;2023-07-31T12:09:15;12.25;;;4.07;;
44204;SDS011;30163;42.698;23.344;2023-07-31T12:11:44;10.30;;;4.07;;
44204;SDS011;30163;42.698;23.344;2023-07-31T12:16:46;5.45;;;4.25;;
44204;SDS011;30163;42.698;23.344;2023-07-31T12:19:11;8.85;;;4.35;;
44204;SDS011;30163;42.698;23.344;2023-07-31T12:21:37;10.45;;;4.50;;
44204;SDS011;30163;42.698;23.344;2023-07-31T12:24:03;12.60;;;5.20;;
44204;SDS011;30163;42.698;23.344;2023-07-31T12:26:34;9.90;;;4.30;;
44204;SDS011;30163;42.698;23.344;2023-07-31T12:28:59;7.38;;;5.18;;
44204;SDS011;30163;42.698;23.344;2023-07-31T12:31:25;8.93;;;6.07;;
44204;SDS011;30163;42.698;23.344;2023-07-31T12:33:53;9.95;;;6.07;;
44204;SDS011;30163;42.698;23.344;2023-07-31T12:36:21;8.43;;;5.10;;
44204;SDS011;30163;42.698;23.344;2023-07-31T12:38:47;8.32;;;6.15;;
44204;SDS011;30163;42.698;23.344;2023-07-31T12:41:13;6.40;;;5.50;;
44204;SDS011;30163;42.698;23.344;2023-07-31T12:43:39;6.88;;;5.88;;
44204;SDS011;30163;42.698;23.344;2023-07-31T12:46:06;5.97;;;5.38;;
44204;SDS011;30163;42.698;23.344;2023-07-31T12:48:33;13.82;;;6.07;;
44204;SDS011;30163;42.698;23.344;2023-07-31T12:50:58;14.38;;;6.75;;
44204;SDS011;30163;42.698;23.344;2023-07-31T12:53:24;13.65;;;6.53;;
44204;SDS011;30163;42.698;23.344;2023-07-31T12:55:49;10.48;;;6.60;;
44204;SDS011;30163;42.698;23.344;2023-07-31T12:58:15;15.30;;;6.70;;
44204;SDS011;30163;42.698;23.344;2023-07-31T13:00:40;13.35;;;6.78;;
44204;SDS011;30163;42.698;23.344;2023-07-31T13:03:06;9.77;;;6.38;;
44204;SDS011;30163;42.698;23.344;2023-07-31T13:05:31;9.45;;;6.68;;
44204;SDS011;30163;42.698;23.344;2023-07-31T13:07:57;11.15;;;6.75;;
44204;SDS011;30163;42.698;23.344;2023-07-31T13:10:23;8.77;;;6.75;;
44204;SDS011;30163;42.698;23.344;2023-07-31T13:12:49;16.58;;;6.82;;
44204;SDS011;30163;42.698;23.344;2023-07-31T13:15:14;11.93;;;6.47;;
44204;SDS011;30163;42.698;23.344;2023-07-31T13:17:40;10.13;;;5.80;;
44204;SDS011;30163;42.698;23.344;2023-07-31T13:20:06;6.68;;;5.65;;
44204;SDS011;30163;42.698;23.344;2023-07-31T13:22:32;16.58;;;6.03;;
44204;SDS011;30163;42.698;23.344;2023-07-31T13:24:57;10.95;;;5.72;;
44204;SDS011;30163;42.698;23.344;2023-07-31T13:27:23;12.85;;;6.07;;
44204;SDS011;30163;42.698;23.344;2023-07-31T13:29:49;9.57;;;5.43;;
44204;SDS011;30163;42.698;23.344;2023-07-31T13:32:18;9.30;;;5.20;;
44204;SDS011;30163;42.698;23.344;2023-07-31T13:34:44;7.97;;;5.72;;
44204;SDS011;30163;42.698;23.344;2023-07-31T13:37:10;7.78;;;5.78;;
44204;SDS011;30163;42.698;23.344;2023-07-31T13:39:35;12.43;;;5.72;;
44204;SDS011;30163;42.698;23.344;2023-07-31T13:42:04;9.15;;;5.82;;
44204;SDS011;30163;42.698;23.344;2023-07-31T13:44:33;12.07;;;6.20;;
44204;SDS011;30163;42.698;23.344;2023-07-31T13:47:01;7.03;;;5.20;;
44204;SDS011;30163;42.698;23.344;2023-07-31T13:49:27;8.13;;;5.50;;
44204;SDS011;30163;42.698;23.344;2023-07-31T13:51:53;7.45;;;5.30;;
44204;SDS011;30163;42.698;23.344;2023-07-31T13:54:18;5.85;;;4.57;;
44204;SDS011;30163;42.698;23.344;2023-07-31T13:56:44;8.15;;;4.80;;
44204;SDS011;30163;42.698;23.344;2023-07-31T13:59:09;5.35;;;4.65;;
44204;SDS011;30163;42.698;23.344;2023-07-31T14:01:35;10.95;;;4.75;;
44204;SDS011;30163;42.698;23.344;2023-07-31T14:04:01;5.95;;;4.88;;
44204;SDS011;30163;42.698;23.344;2023-07-31T14:06:26;6.00;;;4.82;;
44204;SDS011;30163;42.698;23.344;2023-07-31T14:08:52;7.93;;;5.50;;
44204;SDS011;30163;42.698;23.344;2023-07-31T14:11:17;5.90;;;4.95;;
44204;SDS011;30163;42.698;23.344;2023-07-31T14:13:42;12.73;;;5.30;;
44204;SDS011;30163;42.698;23.344;2023-07-31T14:16:08;7.65;;;4.93;;
44204;SDS011;30163;42.698;23.344;2023-07-31T14:18:33;9.93;;;5.00;;
44204;SDS011;30163;42.698;23.344;2023-07-31T14:20:59;5.78;;;5.03;;
44204;SDS011;30163;42.698;23.344;2023-07-31T14:23:24;7.97;;;5.18;;
44204;SDS011;30163;42.698;23.344;2023-07-31T14:25:50;6.28;;;5.00;;
44204;SDS011;30163;42.698;23.344;2023-07-31T14:28:15;21.90;;;5.10;;
44204;SDS011;30163;42.698;23.344;2023-07-31T14:30:40;6.10;;;4.65;;
44204;SDS011;30163;42.698;23.344;2023-07-31T14:33:06;10.90;;;4.65;;
44204;SDS011;30163;42.698;23.344;2023-07-31T14:35:32;10.25;;;4.63;;
44204;SDS011;30163;42.698;23.344;2023-07-31T14:37:57;17.38;;;5.00;;